createdAt,value
2023-03-05T00:01:33.383Z,101001.97
2023-03-05T00:04:04.118Z,100987.09
2023-03-05T00:06:39.623Z,100986.28
2023-03-05T00:09:12.512Z,100984.53
2023-03-05T00:11:42.143Z,100981.94
2023-03-05T00:14:14.998Z,100976.69
2023-03-05T00:16:45.990Z,100968.91
2023-03-05T00:19:14.059Z,100971.59
2023-03-05T00:21:45.932Z,100986.38
2023-03-05T00:24:18.320Z,100968.97
2023-03-05T00:26:47.245Z,100974.25
2023-03-05T00:29:19.366Z,100962.06
2023-03-05T00:31:47.279Z,100959.44
2023-03-05T00:34:17.619Z,100955.09
2023-03-05T00:36:47.801Z,100961.19
2023-03-05T00:39:17.473Z,100953.34
2023-03-05T00:41:45.624Z,100956.88
2023-03-05T00:44:14.047Z,100954.22
2023-03-05T00:46:43.389Z,100955.97
2023-03-05T00:49:11.208Z,100953.31
2023-03-05T00:51:39.003Z,100948.09
2023-03-05T00:54:08.178Z,100941.06
2023-03-05T00:56:35.912Z,100932.38
2023-03-05T00:59:03.660Z,100942.00
2023-03-05T01:01:31.403Z,100937.63
2023-03-05T01:04:01.293Z,100935.94
2023-03-05T01:06:29.561Z,100938.50
2023-03-05T01:08:57.737Z,100928.03
2023-03-05T01:11:25.511Z,100928.91
2023-03-05T01:13:53.400Z,100920.19
2023-03-05T01:16:21.215Z,100925.41
2023-03-05T01:18:48.903Z,100923.56
2023-03-05T01:21:18.002Z,100914.88
2023-03-05T01:23:45.680Z,100918.31
2023-03-05T01:26:13.484Z,100914.75
2023-03-05T01:28:41.544Z,100912.13
2023-03-05T01:31:10.929Z,100918.25
2023-03-05T01:33:39.902Z,100905.16
2023-03-05T01:36:12.510Z,100908.56
2023-03-05T01:38:41.769Z,100904.09
2023-03-05T01:41:10.207Z,100899.59
2023-03-05T01:43:37.999Z,100894.25
2023-03-05T01:46:27.889Z,100895.03
2023-03-05T01:49:02.448Z,100897.59
2023-03-05T01:51:35.337Z,100887.88
2023-03-05T01:54:07.437Z,100887.00
2023-03-05T01:56:35.823Z,100875.59
2023-03-05T01:59:04.411Z,100876.47
2023-03-05T02:01:37.813Z,100870.28
2023-03-05T02:04:05.932Z,100869.34
2023-03-05T02:06:34.680Z,100866.66
2023-03-05T02:09:03.791Z,100857.88
2023-03-05T02:11:31.691Z,100853.47
2023-03-05T02:13:59.673Z,100855.19
2023-03-05T02:16:27.569Z,100848.16
2023-03-05T02:18:55.308Z,100848.09
2023-03-05T02:21:37.737Z,100850.66
2023-03-05T02:24:06.436Z,100847.16
2023-03-05T02:26:34.290Z,100843.59
2023-03-05T02:29:04.147Z,100835.75
2023-03-05T02:31:32.319Z,100833.91
2023-03-05T02:34:00.852Z,100833.03
2023-03-05T02:36:30.215Z,100834.75
2023-03-05T02:38:59.172Z,100829.53
2023-03-05T02:41:27.926Z,100827.72
2023-03-05T02:43:57.772Z,100826.78
2023-03-05T02:46:26.149Z,100827.59
2023-03-05T02:48:54.246Z,100831.94
2023-03-05T02:51:22.164Z,100829.28
2023-03-05T02:53:51.631Z,100827.53
2023-03-05T02:56:19.414Z,100817.88
2023-03-05T02:58:47.153Z,100813.53
2023-03-05T03:01:15.101Z,100817.88
2023-03-05T03:03:42.832Z,100819.63
2023-03-05T03:06:10.664Z,100824.84
2023-03-05T03:08:38.544Z,100820.44
2023-03-05T03:11:11.248Z,100818.81
2023-03-05T03:13:39.359Z,100812.69
2023-03-05T03:16:10.329Z,100806.53
2023-03-05T03:18:40.139Z,100809.16
2023-03-05T03:21:08.409Z,100807.41
2023-03-05T03:23:36.167Z,100809.16
2023-03-05T03:26:04.078Z,100805.69
2023-03-05T03:28:33.438Z,100810.09
2023-03-05T03:31:01.223Z,100800.44
2023-03-05T03:33:28.911Z,100806.56
2023-03-05T03:35:56.971Z,100800.44
2023-03-05T03:38:24.645Z,100794.28
2023-03-05T03:40:52.359Z,100788.97
2023-03-05T03:43:20.066Z,100786.31
2023-03-05T03:45:49.344Z,100781.06
2023-03-05T03:48:17.141Z,100780.94
2023-03-05T03:50:49.601Z,100777.47
2023-03-05T03:53:17.491Z,100776.56
2023-03-05T03:55:46.486Z,100772.22
2023-03-05T03:58:14.444Z,100760.81
2023-03-05T04:00:42.802Z,100764.31
2023-03-05T04:03:12.063Z,100765.16
2023-03-05T04:05:39.805Z,100755.59
2023-03-05T04:08:11.981Z,100747.75
2023-03-05T04:10:39.939Z,100759.97
2023-03-05T04:13:07.842Z,100747.75
2023-03-05T04:15:35.573Z,100746.00
2023-03-05T04:18:03.322Z,100746.91
2023-03-05T04:20:32.401Z,100746.00
2023-03-05T04:23:00.056Z,100743.41
2023-03-05T04:25:27.743Z,100741.66
2023-03-05T04:27:56.543Z,100735.63
2023-03-05T04:30:24.342Z,100740.03
2023-03-05T04:32:52.038Z,100741.78
2023-03-05T04:35:20.149Z,100733.06
2023-03-05T04:37:49.489Z,100728.72
2023-03-05T04:40:17.842Z,100727.00
2023-03-05T04:42:46.473Z,100725.22
2023-03-05T04:45:18.098Z,100724.41
2023-03-05T04:47:45.939Z,100729.72
2023-03-05T04:50:14.507Z,100720.16
2023-03-05T04:52:43.447Z,100725.41
2023-03-05T04:55:14.996Z,100717.56
2023-03-05T04:57:43.248Z,100713.19
2023-03-05T05:00:14.951Z,100705.34
2023-03-05T05:02:43.356Z,100710.59
2023-03-05T05:05:13.060Z,100694.06
2023-03-05T05:07:41.601Z,100699.31
2023-03-05T05:10:11.103Z,100702.78
2023-03-05T05:12:40.302Z,100702.84
2023-03-05T05:15:09.840Z,100695.84
2023-03-05T05:17:38.097Z,100691.47
2023-03-05T05:20:07.781Z,100691.53
2023-03-05T05:22:37.249Z,100688.03
2023-03-05T05:25:05.506Z,100686.31
2023-03-05T05:27:33.407Z,100685.44
2023-03-05T05:30:02.717Z,100688.88
2023-03-05T05:32:30.465Z,100687.16
2023-03-05T05:34:59.622Z,100687.22
2023-03-05T05:37:28.271Z,100681.94
2023-03-05T05:39:56.148Z,100688.00
2023-03-05T05:42:25.647Z,100685.38
2023-03-05T05:44:58.099Z,100684.56
2023-03-05T05:47:27.831Z,100681.88
2023-03-05T05:49:55.884Z,100688.84
2023-03-05T05:52:24.100Z,100688.84
2023-03-05T05:54:52.914Z,100688.84
2023-03-05T05:57:20.740Z,100684.38
2023-03-05T05:59:48.533Z,100679.88
2023-03-05T06:02:16.281Z,100685.06
2023-03-05T06:04:45.353Z,100685.06
2023-03-05T06:07:13.052Z,100680.59
2023-03-05T06:09:41.038Z,100684.94
2023-03-05T06:12:09.302Z,100682.25
2023-03-05T06:14:37.147Z,100686.59
2023-03-05T06:17:04.997Z,100687.44
2023-03-05T06:19:32.955Z,100684.75
2023-03-05T06:22:02.060Z,100676.91
2023-03-05T06:24:29.832Z,100676.91
2023-03-05T06:26:57.714Z,100680.47
2023-03-05T06:29:25.549Z,100679.59
2023-03-05T06:31:53.624Z,100676.22
2023-03-05T06:34:21.744Z,100680.66
2023-03-05T06:36:50.055Z,100680.69
2023-03-05T06:39:19.059Z,100677.31
2023-03-05T06:41:46.841Z,100685.19
2023-03-05T06:44:14.500Z,100692.28
2023-03-05T06:46:42.241Z,100683.63
2023-03-05T06:49:11.729Z,100687.22
2023-03-05T06:51:45.054Z,100678.59
2023-03-05T06:54:15.346Z,100678.69
2023-03-05T06:56:46.871Z,100674.47
2023-03-05T06:59:16.786Z,100680.63
2023-03-05T07:01:45.406Z,100684.16
2023-03-05T07:04:14.417Z,100683.41
2023-03-05T07:06:43.420Z,100680.94
2023-03-05T07:09:14.242Z,100687.09
2023-03-05T07:11:42.087Z,100688.09
2023-03-05T07:14:11.327Z,100683.84
2023-03-05T07:16:39.401Z,100691.00
2023-03-05T07:19:08.245Z,100688.44
2023-03-05T07:21:39.990Z,100696.47
2023-03-05T07:24:09.949Z,100687.94
2023-03-05T07:26:39.438Z,100688.09
2023-03-05T07:29:12.507Z,100688.25
2023-03-05T07:31:55.923Z,100694.59
2023-03-05T07:34:27.371Z,100687.75
2023-03-05T07:36:55.581Z,100684.38
2023-03-05T07:39:28.691Z,100684.53
2023-03-05T07:41:59.577Z,100685.47
2023-03-05T07:44:51.556Z,100687.38
2023-03-05T07:47:27.248Z,100679.53
2023-03-05T07:50:00.101Z,100676.91
2023-03-05T07:52:28.153Z,100671.66
2023-03-05T07:54:57.912Z,100676.13
2023-03-05T07:57:28.486Z,100677.00
2023-03-05T08:00:06.120Z,100674.44
2023-03-05T08:02:43.035Z,100671.06
2023-03-05T08:05:11.133Z,100666.75
2023-03-05T08:07:39.174Z,100675.50
2023-03-05T08:10:10.968Z,100675.50
2023-03-05T08:12:41.416Z,100663.28
2023-03-05T08:15:09.965Z,100676.34
2023-03-05T08:17:37.743Z,100668.50
2023-03-05T08:20:10.832Z,100669.31
2023-03-05T08:22:38.790Z,100664.91
2023-03-05T08:25:08.102Z,100664.03
2023-03-05T08:27:39.522Z,100662.25
2023-03-05T08:30:08.791Z,100656.88
2023-03-05T08:32:36.584Z,100661.19
2023-03-05T08:35:05.212Z,100656.66
2023-03-05T08:37:34.629Z,100659.34
2023-03-05T08:40:02.614Z,100661.03
2023-03-05T08:42:30.400Z,100651.47
2023-03-05T08:44:58.130Z,100662.06
2023-03-05T08:47:27.470Z,100649.78
2023-03-05T08:49:55.775Z,100648.97
2023-03-05T08:52:23.845Z,100642.91
2023-03-05T08:54:53.039Z,100637.78
2023-03-05T08:57:20.802Z,100637.94
2023-03-05T08:59:48.837Z,100626.75
2023-03-05T09:02:16.544Z,100638.31
2023-03-05T09:04:44.246Z,100628.00
2023-03-05T09:07:12.988Z,100622.00
2023-03-05T09:09:40.935Z,100629.13
2023-03-05T09:12:12.308Z,100624.88
2023-03-05T09:14:40.440Z,100623.28
2023-03-05T09:17:09.014Z,100626.00
2023-03-05T09:19:36.773Z,100606.97
2023-03-05T09:22:04.856Z,100609.03
2023-03-05T09:24:32.931Z,100598.06
2023-03-05T09:27:01.712Z,100590.53
2023-03-05T09:29:31.405Z,100589.16
2023-03-05T09:31:59.419Z,100588.50
2023-03-05T09:34:27.385Z,100586.84
2023-03-05T09:36:55.111Z,100600.94
2023-03-05T09:39:22.804Z,100605.31
2023-03-05T09:42:23.453Z,100604.34
2023-03-05T09:45:06.948Z,100598.94
2023-03-05T09:47:50.956Z,100604.97
2023-03-05T09:50:35.073Z,100605.63
2023-03-05T09:53:09.822Z,100601.84
2023-03-05T09:55:41.804Z,100599.75
2023-03-05T09:58:15.693Z,100597.88
2023-03-05T10:00:46.937Z,100589.75
2023-03-05T10:03:22.508Z,100598.34
2023-03-05T10:06:13.759Z,100592.19
2023-03-05T10:08:53.047Z,100589.41
2023-03-05T10:11:34.724Z,100593.63
2023-03-05T10:14:03.389Z,100588.28
2023-03-05T10:16:53.889Z,100588.13
2023-03-05T10:19:40.419Z,100584.44
2023-03-05T10:22:19.214Z,100585.00
2023-03-05T10:24:58.716Z,100581.41
2023-03-05T10:27:40.882Z,100575.25
2023-03-05T10:30:24.673Z,100574.44
2023-03-05T10:33:07.288Z,100580.47
2023-03-05T10:35:54.322Z,100592.44
2023-03-05T10:38:48.187Z,100581.72
2023-03-05T10:41:28.003Z,100575.25
2023-03-05T10:44:02.026Z,100574.19
2023-03-05T10:46:34.197Z,100560.97
2023-03-05T10:49:13.879Z,100561.03
2023-03-05T10:51:49.166Z,100562.91
2023-03-05T10:54:25.363Z,100561.19
2023-03-05T10:57:04.466Z,100557.78
2023-03-05T10:59:33.532Z,100551.91
2023-03-05T11:02:08.540Z,100553.94
2023-03-05T11:04:40.088Z,100553.38
2023-03-05T11:07:31.943Z,100552.84
2023-03-05T11:10:23.773Z,100553.25
2023-03-05T11:12:51.914Z,100547.22
2023-03-05T11:15:27.801Z,100535.06
2023-03-05T11:18:08.665Z,100540.44
2023-03-05T11:20:39.912Z,100535.19
2023-03-05T11:23:12.959Z,100525.63
2023-03-05T11:25:58.802Z,100525.78
2023-03-05T11:28:33.409Z,100532.00
2023-03-05T11:31:07.553Z,100528.56
2023-03-05T11:33:36.590Z,100532.19
2023-03-05T11:36:20.467Z,100529.69
2023-03-05T11:38:53.513Z,100519.41
2023-03-05T11:41:27.849Z,100524.84
2023-03-05T11:43:56.662Z,100513.69
2023-03-05T11:46:25.404Z,100514.31
2023-03-05T11:48:55.891Z,100503.78
2023-03-05T11:51:29.065Z,100499.91
2023-03-05T11:54:00.350Z,100488.66
2023-03-05T11:56:31.139Z,100485.16
2023-03-05T11:59:03.909Z,100488.63
2023-03-05T12:01:34.221Z,100485.88
2023-03-05T12:04:02.545Z,100474.38
2023-03-05T12:06:36.467Z,100475.91
2023-03-05T12:09:10.737Z,100477.53
2023-03-05T12:11:38.748Z,100483.97
2023-03-05T12:14:11.888Z,100473.06
2023-03-05T12:16:43.216Z,100466.56
2023-03-05T12:19:29.263Z,100455.59
2023-03-05T12:21:58.970Z,100454.28
2023-03-05T12:24:38.520Z,100439.97
2023-03-05T12:27:14.693Z,100424.56
2023-03-05T12:29:51.210Z,100426.38
2023-03-05T12:32:59.438Z,100426.41
2023-03-05T12:35:38.267Z,100420.41
2023-03-05T12:38:34.797Z,100420.47
2023-03-05T12:41:39.601Z,100415.25
2023-03-05T12:44:19.018Z,100415.22
2023-03-05T12:46:49.216Z,100415.28
2023-03-05T12:49:39.385Z,100414.44
2023-03-05T12:52:18.177Z,100410.03
2023-03-05T12:55:01.738Z,100407.31
2023-03-05T12:57:31.412Z,100400.34
2023-03-05T13:00:05.556Z,100390.84
2023-03-05T13:02:38.133Z,100389.97
2023-03-05T13:05:16.094Z,100391.72
2023-03-05T13:07:43.750Z,100384.75
2023-03-05T13:10:24.630Z,100377.72
2023-03-05T13:12:54.627Z,100375.06
2023-03-05T13:15:24.533Z,100373.22
2023-03-05T13:17:56.303Z,100363.41
2023-03-05T13:20:33.900Z,100374.63
2023-03-05T13:23:06.755Z,100373.69
2023-03-05T13:25:35.733Z,100377.16
2023-03-05T13:28:04.990Z,100374.44
2023-03-05T13:30:34.572Z,100378.66
2023-03-05T13:33:06.687Z,100376.81
2023-03-05T13:35:35.014Z,100372.28
2023-03-05T13:38:03.105Z,100374.88
2023-03-05T13:40:32.999Z,100382.75
2023-03-05T13:43:13.639Z,100367.00
2023-03-05T13:45:41.423Z,100370.63
2023-03-05T13:48:20.575Z,100368.91
2023-03-05T13:50:55.093Z,100368.88
2023-03-05T13:53:25.548Z,100365.44
2023-03-05T13:55:56.837Z,100363.72
2023-03-05T13:58:48.502Z,100353.16
2023-03-05T14:01:25.116Z,100366.31
2023-03-05T14:03:53.938Z,100355.94
2023-03-05T14:06:23.508Z,100348.09
2023-03-05T14:08:53.009Z,100346.41
2023-03-05T14:11:21.431Z,100343.81
2023-03-05T14:13:59.222Z,100337.78
2023-03-05T14:16:32.655Z,100332.59
2023-03-05T14:19:01.775Z,100335.38
2023-03-05T14:21:45.524Z,100339.00
2023-03-05T14:24:15.370Z,100336.34
2023-03-05T14:26:50.164Z,100333.66
2023-03-05T14:29:21.953Z,100323.03
2023-03-05T14:31:52.294Z,100323.84
2023-03-05T14:34:25.122Z,100315.09
2023-03-05T14:36:54.944Z,100316.81
2023-03-05T14:39:29.060Z,100319.44
2023-03-05T14:41:56.870Z,100311.53
2023-03-05T14:44:26.589Z,100305.41
2023-03-05T14:46:54.212Z,100304.47
2023-03-05T14:49:21.795Z,100301.81
2023-03-05T14:51:49.441Z,100295.66
2023-03-05T14:54:21.121Z,100296.47
2023-03-05T14:56:49.733Z,100286.81
2023-03-05T14:59:18.605Z,100291.13
2023-03-05T15:01:47.809Z,100302.41
2023-03-05T15:04:19.028Z,100296.16
2023-03-05T15:06:50.876Z,100303.91
2023-03-05T15:09:20.480Z,100303.75
2023-03-05T15:11:49.088Z,100297.50
2023-03-05T15:14:16.749Z,100300.81
2023-03-05T15:16:47.679Z,100297.25
2023-03-05T15:19:15.326Z,100286.72
2023-03-05T15:21:42.988Z,100285.84
2023-03-05T15:24:11.496Z,100279.72
2023-03-05T15:26:39.441Z,100271.75
2023-03-05T15:29:07.089Z,100276.06
2023-03-05T15:31:38.584Z,100280.41
2023-03-05T15:34:07.836Z,100284.72
2023-03-05T15:36:35.468Z,100275.13
2023-03-05T15:39:03.201Z,100272.47
2023-03-05T15:41:31.089Z,100272.47
2023-03-05T15:43:58.675Z,100279.44
2023-03-05T15:46:26.337Z,100272.44
2023-03-05T15:48:54.025Z,100275.03
2023-03-05T15:51:23.009Z,100278.50
2023-03-05T15:53:50.593Z,100270.59
2023-03-05T15:56:19.437Z,100273.19
2023-03-05T15:58:49.979Z,100262.66
2023-03-05T16:01:19.331Z,100257.34
2023-03-05T16:03:47.054Z,100258.16
2023-03-05T16:06:16.483Z,100255.50
2023-03-05T16:08:45.459Z,100259.78
2023-03-05T16:11:14.098Z,100257.06
2023-03-05T16:13:43.078Z,100260.47
2023-03-05T16:16:11.134Z,100250.78
2023-03-05T16:18:42.824Z,100239.34
2023-03-05T16:21:11.121Z,100234.91
2023-03-05T16:23:38.799Z,100239.19
2023-03-05T16:26:09.398Z,100243.47
2023-03-05T16:28:37.104Z,100235.50
2023-03-05T16:31:04.833Z,100241.56
2023-03-05T16:33:32.869Z,100243.28
2023-03-05T16:36:20.847Z,100228.34
2023-03-05T16:38:49.715Z,100233.53
2023-03-05T16:41:22.026Z,100230.88
2023-03-05T16:43:51.018Z,100232.59
2023-03-05T16:46:18.651Z,100239.56
2023-03-05T16:48:47.016Z,100230.69
2023-03-05T16:51:14.789Z,100234.19
2023-03-05T16:53:42.655Z,100240.25
2023-03-05T16:56:11.811Z,100233.19
2023-03-05T16:58:41.817Z,100234.00
2023-03-05T17:01:10.815Z,100234.00
2023-03-05T17:03:41.603Z,100237.44
2023-03-05T17:06:11.096Z,100233.88
2023-03-05T17:08:38.779Z,100230.38
2023-03-05T17:11:06.525Z,100225.94
2023-03-05T17:13:34.221Z,100227.66
2023-03-05T17:16:03.629Z,100222.38
2023-03-05T17:18:31.647Z,100219.72
2023-03-05T17:20:59.264Z,100224.97
2023-03-05T17:23:26.941Z,100218.81
2023-03-05T17:25:54.651Z,100222.28
2023-03-05T17:28:22.415Z,100217.88
2023-03-05T17:30:50.192Z,100215.19
2023-03-05T17:33:19.311Z,100223.84
2023-03-05T17:35:47.882Z,100211.56
2023-03-05T17:38:15.701Z,100204.50
2023-03-05T17:40:43.448Z,100194.88
2023-03-05T17:43:11.315Z,100184.31
2023-03-05T17:45:39.165Z,100196.53
2023-03-05T17:48:08.446Z,100211.34
2023-03-05T17:50:37.825Z,100214.81
2023-03-05T17:53:05.846Z,100206.06
2023-03-05T17:55:33.790Z,100207.78
2023-03-05T18:00:31.048Z,100211.22
2023-03-05T18:02:59.274Z,100212.03
2023-03-05T18:05:28.738Z,100201.53
2023-03-05T18:07:57.263Z,100202.41
2023-03-05T18:10:26.489Z,100201.47
2023-03-05T18:12:54.793Z,100197.94
2023-03-05T18:15:24.502Z,100191.78
2023-03-05T18:17:53.769Z,100190.88
2023-03-05T18:20:28.427Z,100193.50
2023-03-05T18:22:57.294Z,100191.72
2023-03-05T18:25:31.270Z,100175.09
2023-03-05T18:27:59.933Z,100168.97
2023-03-05T18:30:28.499Z,100167.19
2023-03-05T18:32:57.869Z,100163.66
2023-03-05T18:35:25.912Z,100154.03
2023-03-05T18:37:53.714Z,100148.75
2023-03-05T18:40:23.762Z,100154.88
2023-03-05T18:42:51.895Z,100159.25
2023-03-05T18:45:21.265Z,100149.59
2023-03-05T18:47:54.175Z,100156.50
2023-03-05T18:50:25.546Z,100153.03
2023-03-05T18:53:06.733Z,100154.69
2023-03-05T18:55:54.440Z,100152.91
2023-03-05T18:58:28.390Z,100151.13
2023-03-05T19:00:57.606Z,100148.47
2023-03-05T19:03:33.632Z,100150.19
2023-03-05T19:06:17.818Z,100146.63
2023-03-05T19:08:50.796Z,100138.72
2023-03-05T19:11:23.694Z,100137.84
2023-03-05T19:13:57.282Z,100142.16
2023-03-05T19:16:36.847Z,100135.97
2023-03-05T19:19:15.329Z,100145.53
2023-03-05T19:21:47.901Z,100145.50
2023-03-05T19:24:16.293Z,100147.22
2023-03-05T19:26:44.621Z,100137.59
2023-03-05T19:29:12.966Z,100156.78
2023-03-05T19:31:41.146Z,100139.28
2023-03-05T19:34:10.084Z,100140.09
2023-03-05T19:36:37.828Z,100138.31
2023-03-05T19:39:09.590Z,100134.84
2023-03-05T19:41:37.419Z,100137.44
2023-03-05T19:44:05.819Z,100140.03
2023-03-05T19:46:34.105Z,100139.13
2023-03-05T19:49:02.647Z,100138.25
2023-03-05T19:51:30.401Z,100129.44
2023-03-05T19:53:58.114Z,100121.53
2023-03-05T19:56:27.660Z,100122.41
2023-03-05T19:58:55.433Z,100120.63
2023-03-05T20:01:25.954Z,100129.34
2023-03-05T20:03:55.857Z,100118.81
2023-03-05T20:06:24.727Z,100117.91
2023-03-05T20:08:52.676Z,100117.03
2023-03-05T20:11:22.318Z,100112.66
2023-03-05T20:13:52.362Z,100115.28
2023-03-05T20:16:22.582Z,100107.38
2023-03-05T20:18:52.968Z,100110.00
2023-03-05T20:21:23.236Z,100112.63
2023-03-05T20:23:51.383Z,100107.38
2023-03-05T20:26:19.713Z,100103.84
2023-03-05T20:28:48.223Z,100098.56
2023-03-05T20:31:24.942Z,100089.84
2023-03-05T20:33:52.726Z,100093.34
2023-03-05T20:36:20.499Z,100088.06
2023-03-05T20:38:48.302Z,100089.81
2023-03-05T20:41:18.173Z,100080.19
2023-03-05T20:43:48.912Z,100086.28
2023-03-05T20:46:20.445Z,100086.28
2023-03-05T20:48:49.561Z,100081.88
2023-03-05T20:51:21.420Z,100085.34
2023-03-05T20:53:49.790Z,100083.63
2023-03-05T20:56:17.684Z,100085.41
2023-03-05T20:58:45.452Z,100078.38
2023-03-05T21:01:13.532Z,100072.31
2023-03-05T21:03:43.009Z,100077.53
2023-03-05T21:06:10.772Z,100068.78
2023-03-05T21:08:38.480Z,100072.31
2023-03-05T21:11:08.520Z,100066.16
2023-03-05T21:13:36.896Z,100060.91
2023-03-05T21:16:08.263Z,100060.09
2023-03-05T21:18:36.203Z,100054.81
2023-03-05T21:21:05.964Z,100055.69
2023-03-05T21:23:33.885Z,100042.59
2023-03-05T21:26:04.143Z,100045.22
2023-03-05T21:28:33.172Z,100049.59
2023-03-05T21:31:07.394Z,100047.81
2023-03-05T21:33:35.792Z,100034.75
2023-03-05T21:36:07.831Z,100033.88
2023-03-05T21:38:35.756Z,100028.63
2023-03-05T21:41:04.123Z,100026.00
2023-03-05T21:43:32.661Z,100019.91
2023-03-05T21:46:03.647Z,100026.84
2023-03-05T21:48:32.484Z,100014.63
2023-03-05T21:51:00.575Z,100012.84
2023-03-05T21:53:29.645Z,100014.59
2023-03-05T21:56:06.517Z,100010.22
2023-03-05T21:58:35.668Z,100010.19
2023-03-05T22:01:04.002Z,99998.84
2023-03-05T22:03:32.178Z,99998.00
2023-03-05T22:05:59.938Z,100001.44
2023-03-05T22:08:30.041Z,100001.44
2023-03-05T22:10:59.019Z,99990.09
2023-03-05T22:13:26.916Z,99992.72
2023-03-05T22:15:56.298Z,99992.72
2023-03-05T22:18:26.364Z,99980.50
2023-03-05T22:20:54.736Z,99978.75
2023-03-05T22:23:24.555Z,99977.84
2023-03-05T22:25:58.379Z,99968.25
2023-03-05T22:28:27.745Z,99969.97
2023-03-05T22:30:56.093Z,99970.84
2023-03-05T22:33:24.418Z,99967.31
2023-03-05T22:35:52.256Z,99962.06
2023-03-05T22:38:20.703Z,99962.91
2023-03-05T22:40:50.380Z,99964.66
2023-03-05T22:43:20.383Z,99964.63
2023-03-05T22:45:48.352Z,99954.13
2023-03-05T22:48:16.540Z,99952.38
2023-03-05T22:50:45.340Z,99949.78
2023-03-05T22:53:13.569Z,99948.88
2023-03-05T22:55:42.030Z,99948.88
2023-03-05T22:58:10.526Z,99939.22
2023-03-05T23:00:41.476Z,99939.28
2023-03-05T23:03:09.539Z,99941.00
2023-03-05T23:05:40.101Z,99937.53
2023-03-05T23:08:09.455Z,99930.53
2023-03-05T23:10:37.586Z,99932.31
2023-03-05T23:13:06.492Z,99930.59
2023-03-05T23:15:38.087Z,99931.41
2023-03-05T23:18:09.459Z,99932.28
2023-03-05T23:20:38.193Z,99930.59
2023-03-05T23:23:06.156Z,99927.06
2023-03-05T23:25:36.969Z,99926.16
2023-03-05T23:28:05.352Z,99937.53
2023-03-05T23:30:34.613Z,99928.75
2023-03-05T23:33:06.056Z,99924.44
2023-03-05T23:35:37.904Z,99930.53
2023-03-05T23:38:07.934Z,99924.44
2023-03-05T23:40:38.084Z,99914.81
2023-03-05T23:43:06.021Z,99920.88
2023-03-05T23:45:33.978Z,99918.25
2023-03-05T23:48:01.791Z,99908.69
2023-03-05T23:50:32.243Z,99905.16
2023-03-05T23:53:02.499Z,99912.19
2023-03-05T23:55:32.945Z,99901.69
2023-03-05T23:58:02.065Z,99902.56
